Time;durP1;ratioP1;P1;durP2;ratioP2;P2;SDS_P1;SDS_P2;PMS_P1;PMS_P2;Temp;Humidity;BMP_temperature;BMP_pressure;BME280_temperature;BME280_humidity;BME280_pressure;Samples;Min_cycle;Max_cycle;Signal;HPM_P1;HPM_P2
2023/04/24 00:02:14;;;;;;;25.55;11.35;;;;;;;20.79;61.26;98458.59;4830400;29;20054;-56
2023/04/24 00:04:46;;;;;;;24.73;11.68;;;;;;;20.78;61.15;98454.28;4833666;29;20058;-56
2023/04/24 00:07:16;;;;;;;24.95;11.80;;;;;;;20.78;61.22;98457.78;4831090;29;20440;-57
2023/04/24 00:09:46;;;;;;;19.67;10.77;;;;;;;20.78;61.15;98459.66;4833222;29;20058;-56
2023/04/24 00:12:15;;;;;;;18.83;10.85;;;;;;;20.79;61.17;98466.66;4816645;29;20050;-52
2023/04/24 00:14:45;;;;;;;20.73;11.15;;;;;;;20.79;60.95;98469.38;4814278;29;20050;-55
2023/04/24 00:17:15;;;;;;;29.73;11.88;;;;;;;20.80;61.07;98481.75;4821263;29;20617;-53
2023/04/24 00:19:44;;;;;;;23.08;12.38;;;;;;;20.77;60.71;98480.38;4832982;29;20125;-54
2023/04/24 00:22:14;;;;;;;38.20;12.13;;;;;;;20.75;60.71;98479.84;4812244;29;20632;-56
2023/04/24 00:24:44;;;;;;;36.42;12.00;;;;;;;20.74;60.09;98480.91;4815293;29;20054;-51
2023/04/24 00:27:13;;;;;;;23.92;12.27;;;;;;;20.74;59.79;98486.31;4818832;29;20052;-55
2023/04/24 00:29:43;;;;;;;36.53;13.00;;;;;;;20.74;59.57;98501.63;4828837;29;20058;-54
2023/04/24 00:44:10;;;;;;;33.28;14.40;;;;;;;20.77;58.99;98511.88;4825776;29;20052;-56
2023/04/24 00:47:44;;;;;;;31.35;14.63;;;;;;;20.77;58.99;98519.94;4820163;29;20390;-52
2023/04/24 00:50:15;;;;;;;35.72;15.40;;;;;;;20.79;59.06;98520.50;4820485;29;20128;-55
2023/04/24 00:52:44;;;;;;;34.55;15.38;;;;;;;20.77;59.23;98512.69;4818550;29;20068;-55
2023/04/24 00:56:12;;;;;;;35.80;15.80;;;;;;;20.82;59.27;98523.47;4824793;29;20269;-57
2023/04/24 00:58:42;;;;;;;42.90;16.05;;;;;;;20.82;59.50;98518.09;4820814;29;20050;-54
2023/04/24 01:01:12;;;;;;;33.60;15.98;;;;;;;20.86;59.60;98518.38;4817403;29;20062;-56
2023/04/24 01:03:43;;;;;;;41.72;19.63;;;;;;;20.87;59.32;98523.50;4820267;29;20065;-56
2023/04/24 01:06:14;;;;;;;41.53;17.70;;;;;;;20.90;59.24;98535.63;4836053;29;20073;-55
2023/04/24 01:08:46;;;;;;;43.10;17.23;;;;;;;20.91;59.48;98532.66;4820248;29;20413;-57
2023/04/24 01:11:16;;;;;;;33.15;17.13;;;;;;;20.96;59.85;98527.31;4820064;29;20099;-55
2023/04/24 01:14:43;;;;;;;43.22;18.55;;;;;;;20.99;59.30;98532.16;4833243;29;20054;-53
2023/04/24 01:17:17;;;;;;;42.47;18.73;;;;;;;21.06;58.76;98531.94;4819429;29;20054;-58
2023/04/24 01:20:21;;;;;;;56.10;20.92;;;;;;;21.12;58.48;98540.81;4802916;29;20054;-56
2023/04/24 01:22:51;;;;;;;52.10;22.48;;;;;;;21.17;58.12;98538.97;4826805;29;20650;-57
2023/04/24 01:25:29;;;;;;;49.40;21.65;;;;;;;21.21;58.39;98537.38;4831905;29;20064;-57
2023/04/24 01:27:59;;;;;;;52.17;21.55;;;;;;;21.27;58.85;98540.91;4813625;29;20134;-58
2023/04/24 01:30:32;;;;;;;46.05;21.38;;;;;;;21.32;58.54;98544.44;4831969;29;20064;-54
2023/04/24 01:33:34;;;;;;;48.92;23.25;;;;;;;21.40;58.75;98548.47;4836226;29;20160;-58
2023/04/24 01:36:06;;;;;;;52.10;23.80;;;;;;;21.45;58.66;98548.50;4834626;29;20077;-59
2023/04/24 01:38:35;;;;;;;50.72;23.55;;;;;;;21.52;59.17;98551.72;4820215;29;20054;-56
2023/04/24 01:41:07;;;;;;;52.83;25.35;;;;;;;21.59;58.45;98554.19;4819981;29;20054;-56
2023/04/24 01:43:37;;;;;;;59.47;25.88;;;;;;;21.65;58.30;98564.69;4834594;29;20334;-58
2023/04/24 01:46:07;;;;;;;50.45;25.52;;;;;;;21.76;58.10;98568.22;4819818;29;20057;-59
2023/04/24 01:48:38;;;;;;;58.45;25.40;;;;;;;21.85;58.04;98572.00;4820207;29;20756;-55
2023/04/24 01:51:08;;;;;;;54.10;25.90;;;;;;;21.94;57.98;98568.53;4819507;29;20068;-57
2023/04/24 01:53:37;;;;;;;65.28;28.70;;;;;;;22.02;58.10;98575.28;4820260;29;20648;-58
2023/04/24 01:56:09;;;;;;;68.32;29.35;;;;;;;22.11;57.56;98573.66;4819261;29;20081;-60
2023/04/24 01:58:39;;;;;;;53.63;29.58;;;;;;;22.19;56.49;98575.81;4806386;29;20379;-57
2023/04/24 02:01:18;;;;;;;62.03;30.50;;;;;;;22.31;56.02;98589.00;4814525;29;20441;-57
2023/04/24 02:03:48;;;;;;;59.92;30.58;;;;;;;22.46;56.44;98589.00;4835709;29;20461;-58
2023/04/24 02:06:17;;;;;;;61.25;32.35;;;;;;;22.59;55.98;98591.16;4811204;29;20042;-58
2023/04/24 02:08:46;;;;;;;57.53;30.60;;;;;;;22.73;55.59;98589.53;4802309;29;20057;-55
2023/04/24 02:11:16;;;;;;;57.90;31.40;;;;;;;22.87;54.33;98589.78;4834170;29;20049;-55
2023/04/24 02:13:45;;;;;;;62.22;30.50;;;;;;;23.01;53.92;98587.31;4819323;29;20053;-56
2023/04/24 02:16:14;;;;;;;57.15;30.75;;;;;;;23.37;53.91;98599.56;4834464;29;20600;-56
2023/04/24 02:18:44;;;;;;;72.32;31.15;;;;;;;23.98;52.01;98597.34;4830361;29;20150;-56
2023/04/24 02:21:13;;;;;;;71.47;30.25;;;;;;;24.53;50.39;98595.28;4818467;29;20061;-56
2023/04/24 02:24:09;;;;;;;61.33;28.80;;;;;;;25.09;47.91;98606.38;4833986;29;20156;-54
2023/04/24 02:26:41;;;;;;;54.83;29.35;;;;;;;25.45;48.01;98601.28;4835119;29;20217;-55
2023/04/24 02:29:10;;;;;;;54.92;30.63;;;;;;;25.90;46.85;98603.38;4834208;29;20045;-55
2023/04/24 02:31:41;;;;;;;75.05;31.20;;;;;;;26.48;45.79;98611.16;4826889;29;20064;-56
2023/04/24 02:34:10;;;;;;;61.40;31.10;;;;;;;26.98;43.25;98608.66;4817566;29;20050;-55
2023/04/24 02:36:40;;;;;;;55.28;30.40;;;;;;;27.53;42.74;98607.53;4819126;29;20061;-55
2023/04/24 02:39:09;;;;;;;68.95;32.30;;;;;;;28.02;42.44;98608.59;4818577;29;20152;-56
2023/04/24 02:41:40;;;;;;;71.15;34.03;;;;;;;28.18;41.69;98611.81;4831008;29;20071;-55
2023/04/24 02:44:09;;;;;;;63.55;34.25;;;;;;;28.13;42.16;98619.00;4834833;29;20046;-54
2023/04/24 02:46:41;;;;;;;67.25;34.42;;;;;;;27.74;42.89;98628.88;4804424;29;20058;-56
2023/04/24 02:49:11;;;;;;;70.35;34.72;;;;;;;27.58;43.01;98629.19;4800297;29;20161;-54
2023/04/24 02:51:41;;;;;;;67.07;35.22;;;;;;;27.82;42.12;98633.59;4800571;29;20122;-55
2023/04/24 02:54:10;;;;;;;85.72;35.47;;;;;;;27.90;41.81;98627.41;4809102;29;20054;-56
2023/04/24 02:57:11;;;;;;;65.72;34.35;;;;;;;27.69;42.36;98632.50;4820697;29;20085;-56
2023/04/24 02:59:42;;;;;;;72.93;36.15;;;;;;;27.25;43.64;98644.84;4818727;29;20065;-55
2023/04/24 03:03:10;;;;;;;74.68;38.40;;;;;;;26.64;44.03;98647.81;4827764;29;20526;-55
2023/04/24 03:06:37;;;;;;;72.65;37.65;;;;;;;26.07;46.35;98640.84;4829273;29;20828;-55
2023/04/24 03:09:06;;;;;;;77.60;35.58;;;;;;;25.72;46.08;98649.50;4832265;29;20060;-57
2023/04/24 03:11:36;;;;;;;70.10;36.13;;;;;;;25.64;46.91;98644.75;4812418;29;20045;-56
2023/04/24 03:14:08;;;;;;;81.85;37.40;;;;;;;25.44;47.77;98649.31;4816722;29;20065;-55
2023/04/24 03:16:38;;;;;;;97.93;47.10;;;;;;;25.34;48.14;98651.34;4803637;29;20148;-55
2023/04/24 03:19:08;;;;;;;101.07;53.03;;;;;;;25.26;47.50;98646.56;4833871;29;20118;-54
2023/04/24 03:21:46;;;;;;;106.38;58.38;;;;;;;25.36;47.93;98652.66;4814748;29;20134;-57
2023/04/24 03:24:16;;;;;;;113.38;57.53;;;;;;;25.34;47.53;98652.16;4818333;29;20050;-55
2023/04/24 03:26:45;;;;;;;120.50;53.80;;;;;;;25.39;46.31;98662.94;4817154;29;20102;-55
2023/04/24 03:29:33;;;;;;;110.20;51.53;;;;;;;25.34;47.02;98664.88;4817209;29;20050;-59
2023/04/24 03:32:03;;;;;;;125.30;63.03;;;;;;;25.44;45.41;98662.88;4817592;29;20057;-59
2023/04/24 03:34:34;;;;;;;152.35;73.43;;;;;;;25.41;46.35;98659.91;4818249;29;20651;-56
2023/04/24 03:37:04;;;;;;;161.40;77.45;;;;;;;25.41;45.80;98666.16;4809142;29;20054;-57
2023/04/24 03:39:37;;;;;;;;;;;;;;;25.51;44.04;98657.09;4800449;29;20070;-55
2023/04/24 03:42:08;;;;;;;104.93;53.45;;;;;;;25.53;45.07;98659.50;4807149;29;19955;-55
2023/04/24 03:44:48;;;;;;;91.72;42.90;;;;;;;25.47;45.40;98664.19;4817727;29;20054;-59
2023/04/24 03:47:20;;;;;;;80.70;41.28;;;;;;;25.45;45.77;98671.78;4817541;29;20078;-56
2023/04/24 03:49:51;;;;;;;86.00;36.60;;;;;;;25.45;45.03;98672.59;4818046;29;20057;-56
2023/04/24 03:52:21;;;;;;;61.47;33.63;;;;;;;25.61;43.28;98673.28;4833252;29;20049;-54
2023/04/24 03:54:51;;;;;;;58.97;31.40;;;;;;;25.71;44.09;98670.41;4815341;29;20098;-56
2023/04/24 03:57:20;;;;;;;62.85;31.95;;;;;;;25.80;43.84;98673.31;4802284;29;20141;-54
2023/04/24 04:00:06;;;;;;;56.45;29.25;;;;;;;25.83;44.49;98670.00;4809699;29;20643;-57
2023/04/24 04:02:41;;;;;;;59.88;28.48;;;;;;;26.02;43.59;98676.25;4808749;29;20050;-58
2023/04/24 04:05:11;;;;;;;52.28;24.88;;;;;;;26.14;44.14;98673.88;4814870;29;20131;-57
2023/04/24 04:07:41;;;;;;;41.10;24.38;;;;;;;26.20;44.86;98680.06;4803353;29;20059;-55
2023/04/24 04:10:11;;;;;;;47.45;21.92;;;;;;;26.29;44.36;98675.56;4817887;29;20050;-56
2023/04/24 04:12:41;;;;;;;35.25;16.73;;;;;;;26.37;42.05;98674.94;4812903;29;20072;-60
2023/04/24 04:15:10;;;;;;;29.17;16.25;;;;;;;26.60;40.45;98678.63;4810645;29;20077;-58
2023/04/24 04:17:41;;;;;;;27.13;14.75;;;;;;;26.88;40.04;98674.09;4803330;29;20065;-56
2023/04/24 04:20:12;;;;;;;30.77;14.68;;;;;;;27.12;40.35;98674.75;4803523;29;20050;-56
2023/04/24 04:22:41;;;;;;;29.15;15.10;;;;;;;27.33;40.27;98684.09;4814542;29;20089;-54
2023/04/24 04:25:19;;;;;;;25.20;13.40;;;;;;;27.50;35.93;98681.63;4835705;29;20050;-58
2023/04/24 04:27:50;;;;;;;21.70;12.48;;;;;;;27.65;37.25;98677.78;4820759;29;20058;-56
2023/04/24 04:30:20;;;;;;;22.48;12.48;;;;;;;27.89;36.94;98686.50;4824285;29;20164;-57
2023/04/24 04:32:56;;;;;;;29.88;13.50;;;;;;;28.22;38.08;98684.44;4815723;29;20086;-53
2023/04/24 04:35:27;;;;;;;20.02;10.25;;;;;;;28.44;37.14;98681.72;4820089;29;20065;-57
2023/04/24 04:37:58;;;;;;;17.77;7.90;;;;;;;28.66;30.08;98688.28;4814676;29;20057;-55
2023/04/24 04:40:56;;;;;;;19.55;7.43;;;;;;;28.82;35.46;98682.16;4805781;29;20043;-57
2023/04/24 04:43:30;;;;;;;16.73;7.70;;;;;;;29.08;34.80;98673.31;4819200;29;20061;-58
2023/04/24 04:46:00;;;;;;;19.10;7.90;;;;;;;29.30;35.18;98674.06;4836247;29;20468;-58
2023/04/24 04:48:47;;;;;;;23.27;7.75;;;;;;;29.36;34.70;98678.28;4820648;29;20054;-61
2023/04/24 04:51:17;;;;;;;21.30;7.60;;;;;;;29.56;33.97;98678.81;4820383;29;20068;-61
2023/04/24 04:53:46;;;;;;;20.00;6.30;;;;;;;29.69;31.09;98684.16;4820221;29;20065;-57
2023/04/24 04:56:16;;;;;;;20.45;5.40;;;;;;;29.54;34.20;98681.06;4815364;29;20116;-57
2023/04/24 04:58:46;;;;;;;12.98;4.45;;;;;;;29.75;31.48;98682.88;4820749;29;20138;-57
2023/04/24 05:01:18;;;;;;;15.95;5.30;;;;;;;30.17;33.35;98677.81;4816106;29;20146;-61
2023/04/24 05:03:50;;;;;;;21.60;7.63;;;;;;;30.04;33.66;98674.13;4804368;29;20050;-59
2023/04/24 05:06:21;;;;;;;13.05;5.90;;;;;;;29.99;29.90;98682.47;4815567;29;20058;-57
2023/04/24 05:08:56;;;;;;;13.98;5.68;;;;;;;30.15;29.48;98682.78;4816287;29;20057;-59
2023/04/24 05:11:46;;;;;;;11.95;5.45;;;;;;;30.28;30.45;98690.81;4816116;29;20054;-59
2023/04/24 05:14:17;;;;;;;13.63;4.97;;;;;;;30.91;26.00;98680.31;4831097;29;20051;-58
2023/04/24 05:16:47;;;;;;;16.85;5.60;;;;;;;31.57;24.43;98682.34;4813758;29;20474;-60
2023/04/24 05:19:20;;;;;;;;;;;;;;;32.13;28.47;98693.16;4812803;29;20115;-59
2023/04/24 05:21:50;;;;;;;18.52;5.88;;;;;;;32.15;21.76;98690.88;4811834;29;19921;-59
2023/04/24 05:24:22;;;;;;;12.07;5.07;;;;;;;32.21;25.16;98693.09;4817886;29;20062;-57
2023/04/24 05:28:10;;;;;;;11.88;4.63;;;;;;;31.75;29.79;98693.19;4806967;29;20047;-59
2023/04/24 05:32:41;;;;;;;12.43;4.35;;;;;;;31.62;30.23;98692.31;4812395;29;20191;-60
2023/04/24 05:36:08;;;;;;;13.00;4.40;;;;;;;31.37;31.01;98698.69;4831842;29;20576;-59
2023/04/24 05:38:38;;;;;;;11.40;4.65;;;;;;;31.48;28.09;98694.44;4834881;29;20064;-60
2023/04/24 05:41:07;;;;;;;13.00;5.35;;;;;;;31.69;24.41;98694.53;4834057;29;20921;-59
2023/04/24 05:43:37;;;;;;;9.45;4.22;;;;;;;31.64;29.71;98701.00;4809024;29;20054;-60
2023/04/24 05:46:06;;;;;;;12.30;5.30;;;;;;;31.35;30.72;98706.41;4815620;29;20064;-59
2023/04/24 05:48:35;;;;;;;11.43;4.47;;;;;;;30.78;32.68;98701.25;4812688;29;20396;-57
2023/04/24 05:51:05;;;;;;;9.35;4.60;;;;;;;30.73;32.61;98696.75;4811633;29;20050;-58
2023/04/24 05:53:35;;;;;;;13.68;5.30;;;;;;;30.58;32.99;98704.69;4792839;29;20154;-59
2023/04/24 05:56:05;;;;;;;15.23;5.15;;;;;;;30.69;30.47;98695.81;4817355;29;20058;-60
2023/04/24 05:58:37;;;;;;;10.38;5.35;;;;;;;31.18;32.55;98693.63;4806928;29;20068;-58
2023/04/24 06:01:07;;;;;;;20.08;5.75;;;;;;;31.10;34.08;98697.19;4806737;29;20062;-58
2023/04/24 06:03:39;;;;;;;17.33;5.20;;;;;;;31.31;30.77;98700.81;4809142;29;20050;-59
2023/04/24 06:06:09;;;;;;;9.20;4.78;;;;;;;31.28;32.19;98696.00;4819416;29;20069;-60
2023/04/24 06:08:38;;;;;;;9.75;4.38;;;;;;;31.36;32.67;98700.63;4806789;29;20065;-59
2023/04/24 06:11:08;;;;;;;9.88;4.45;;;;;;;31.27;29.65;98707.25;4810259;29;20172;-59
2023/04/24 06:13:38;;;;;;;14.23;4.47;;;;;;;31.45;24.87;98703.31;4823507;29;20070;-60
2023/04/24 06:16:26;;;;;;;12.82;4.20;;;;;;;31.31;31.89;98702.75;4809242;29;20097;-61
2023/04/24 06:19:02;;;;;;;9.48;4.63;;;;;;;31.58;28.54;98705.06;4808569;29;20043;-59
2023/04/24 06:21:32;;;;;;;10.73;5.03;;;;;;;31.70;25.79;98702.41;4812269;29;20116;-59
2023/04/24 06:24:02;;;;;;;7.85;4.50;;;;;;;31.52;29.93;98707.16;4480016;29;10000307;-60
2023/04/24 06:26:32;;;;;;;10.35;4.63;;;;;;;30.94;33.25;98699.59;4796670;29;20101;-61
2023/04/24 06:29:01;;;;;;;12.32;4.70;;;;;;;31.04;30.24;98695.75;4805524;29;20431;-62
2023/04/24 06:31:34;;;;;;;12.85;4.28;;;;;;;31.08;23.63;98693.97;4812642;29;21042;-59
2023/04/24 06:34:05;;;;;;;8.70;4.43;;;;;;;31.15;23.57;98697.00;4817237;29;20537;-61
2023/04/24 06:36:35;;;;;;;20.65;4.85;;;;;;;31.60;20.25;98691.84;4827030;29;20392;-59
2023/04/24 06:39:05;;;;;;;16.83;5.28;;;;;;;32.00;20.37;98693.03;4812066;29;20051;-60
2023/04/24 06:41:35;;;;;;;10.55;4.95;;;;;;;31.83;25.11;98689.59;4805314;29;20081;-61
2023/04/24 06:44:05;;;;;;;14.52;4.82;;;;;;;31.87;28.13;98691.34;4803553;29;20050;-60
2023/04/24 06:46:35;;;;;;;11.45;4.20;;;;;;;31.71;25.17;98686.78;4811307;29;20046;-61
2023/04/24 06:49:07;;;;;;;;;;;;;;;31.90;26.08;98698.13;4815036;29;20195;-60
2023/04/24 06:51:37;;;;;;;7.25;4.15;;;;;;;31.95;23.38;98692.44;4794510;29;20071;-60
2023/04/24 06:54:07;;;;;;;11.00;4.93;;;;;;;31.78;27.20;98687.09;4794312;29;20484;-61
2023/04/24 06:56:37;;;;;;;11.82;4.35;;;;;;;31.76;22.29;98690.13;4806297;29;20054;-60
2023/04/24 06:59:06;;;;;;;7.18;3.97;;;;;;;31.62;28.37;98695.06;4806569;29;20054;-59
2023/04/24 07:01:35;;;;;;;9.25;4.43;;;;;;;31.87;24.55;98690.53;4818255;29;20118;-62
2023/04/24 07:04:05;;;;;;;17.33;5.25;;;;;;;31.71;27.80;98695.00;4831643;29;20561;-62
2023/04/24 07:06:38;;;;;;;11.07;4.18;;;;;;;31.63;27.73;98682.97;4844788;29;20053;-61
2023/04/24 07:09:09;;;;;;;11.45;4.53;;;;;;;31.66;28.01;98685.03;4802004;29;20093;-62
2023/04/24 07:11:40;;;;;;;12.20;4.40;;;;;;;32.33;22.30;98682.16;4825723;29;20122;-61
2023/04/24 07:14:10;;;;;;;10.20;3.95;;;;;;;32.27;24.70;98685.44;4832539;29;20126;-62
2023/04/24 07:16:40;;;;;;;11.43;4.07;;;;;;;32.09;29.78;98685.56;4831659;29;20096;-61
2023/04/24 07:19:10;;;;;;;14.93;3.90;;;;;;;31.95;29.12;98690.50;4840900;29;20693;-61
2023/04/24 07:21:40;;;;;;;10.20;3.45;;;;;;;32.07;23.85;98682.34;4824909;29;20062;-60
2023/04/24 07:24:11;;;;;;;10.90;3.60;;;;;;;32.08;30.09;98683.97;4815849;29;20064;-61
2023/04/24 07:26:40;;;;;;;9.60;3.50;;;;;;;31.69;30.93;98681.63;4826778;29;20050;-66
2023/04/24 07:29:10;;;;;;;10.13;3.35;;;;;;;31.53;30.85;98678.63;4814055;29;20060;-63
2023/04/24 07:31:41;;;;;;;13.35;3.47;;;;;;;31.12;29.20;98678.50;4827199;29;20657;-63
2023/04/24 07:34:10;;;;;;;9.23;3.65;;;;;;;31.00;30.00;98672.88;4824820;29;20498;-64
2023/04/24 07:36:41;;;;;;;17.85;4.47;;;;;;;31.01;31.63;98671.78;4830500;29;20065;-65
2023/04/24 07:39:10;;;;;;;11.02;3.85;;;;;;;31.05;30.23;98673.53;4827034;29;20057;-64
2023/04/24 07:41:39;;;;;;;6.93;3.20;;;;;;;31.18;30.27;98674.47;4833425;29;20074;-63
2023/04/24 07:44:09;;;;;;;14.00;4.07;;;;;;;31.25;29.43;98666.53;4816112;29;20423;-63
2023/04/24 07:47:05;;;;;;;9.07;3.80;;;;;;;31.14;29.92;98666.09;4825901;29;20042;-65
2023/04/24 07:49:47;;;;;;;11.93;3.72;;;;;;;31.53;23.29;98661.41;4820673;29;20053;-63
2023/04/24 07:52:16;;;;;;;9.70;3.67;;;;;;;31.68;26.36;98660.88;4823192;29;20038;-62
2023/04/24 07:54:46;;;;;;;4.60;3.50;;;;;;;31.53;29.50;98659.47;4832349;29;21982;-64
2023/04/24 07:57:15;;;;;;;6.00;3.53;;;;;;;31.53;24.31;98653.19;4830882;29;20042;-65
2023/04/24 07:59:44;;;;;;;11.23;4.25;;;;;;;31.32;29.51;98646.88;4821325;29;20153;-66
2023/04/24 08:02:14;;;;;;;11.50;3.35;;;;;;;31.31;29.47;98643.31;4829935;29;20570;-61
2023/04/24 08:04:51;;;;;;;12.45;3.38;;;;;;;31.16;29.22;98633.72;4820869;29;20126;-60
2023/04/24 08:07:23;;;;;;;8.35;3.63;;;;;;;30.65;28.73;98631.97;4824438;29;20110;-57
2023/04/24 08:09:52;;;;;;;11.40;4.05;;;;;;;30.51;30.30;98630.53;4824108;29;20161;-66
2023/04/24 08:12:22;;;;;;;5.55;3.30;;;;;;;30.52;27.17;98626.69;4806725;29;20149;-64
2023/04/24 08:14:51;;;;;;;6.13;3.53;;;;;;;30.92;24.11;98624.47;4832044;29;20474;-62
2023/04/24 08:17:21;;;;;;;6.55;3.50;;;;;;;30.96;20.73;98622.69;4829250;29;20046;-64
2023/04/24 08:19:51;;;;;;;16.42;3.95;;;;;;;31.14;21.54;98618.78;4824142;29;20046;-61
2023/04/24 08:22:21;;;;;;;8.75;3.60;;;;;;;31.25;25.63;98611.00;4832857;29;20058;-63
2023/04/24 08:24:50;;;;;;;8.38;3.63;;;;;;;31.56;23.80;98604.06;4832988;29;20058;-67
2023/04/24 08:27:20;;;;;;;7.95;3.42;;;;;;;31.49;24.90;98614.72;4830722;29;20042;-63
2023/04/24 08:29:50;;;;;;;7.57;2.95;;;;;;;31.46;27.10;98600.91;4830858;29;20133;-62
2023/04/24 08:32:19;;;;;;;10.20;3.50;;;;;;;31.20;28.06;98592.84;4823922;29;20042;-65
2023/04/24 08:34:49;;;;;;;14.43;3.25;;;;;;;31.07;24.17;98591.16;4814942;29;20056;-64
2023/04/24 08:37:19;;;;;;;10.73;3.55;;;;;;;31.09;23.52;98595.13;4827130;29;20054;-64
2023/04/24 08:39:49;;;;;;;7.55;2.75;;;;;;;30.93;28.33;98585.06;4825776;29;20072;-66
2023/04/24 08:42:20;;;;;;;10.30;3.10;;;;;;;31.58;19.79;98584.56;4850035;29;20117;-64
2023/04/24 08:44:50;;;;;;;23.95;4.05;;;;;;;31.58;26.74;98581.84;4812486;29;20518;-64
2023/04/24 08:47:22;;;;;;;8.73;3.55;;;;;;;31.52;24.92;98585.88;4818591;29;20517;-64
2023/04/24 08:50:30;;;;;;;11.23;2.80;;;;;;;31.95;17.67;98575.44;4835501;29;20156;-67
2023/04/24 08:53:01;;;;;;;4.45;2.85;;;;;;;31.64;25.53;98577.78;4836331;29;20085;-64
2023/04/24 08:55:33;;;;;;;5.97;2.92;;;;;;;31.29;26.97;98570.91;4814902;29;20058;-67
2023/04/24 08:58:03;;;;;;;14.27;2.90;;;;;;;31.34;21.90;98567.94;4815835;29;20554;-67
2023/04/24 09:00:33;;;;;;;7.05;2.75;;;;;;;31.19;26.54;98563.88;4810846;29;20058;-64
2023/04/24 09:03:04;;;;;;;6.28;2.80;;;;;;;31.46;24.92;98557.09;4818500;29;20046;-67
2023/04/24 09:05:34;;;;;;;9.82;3.00;;;;;;;31.49;24.37;98540.78;4818290;29;20062;-63
2023/04/24 09:08:05;;;;;;;15.75;4.22;;;;;;;31.49;17.46;98534.50;4830934;29;20150;-63
2023/04/24 09:10:35;;;;;;;8.40;2.95;;;;;;;31.01;27.50;98541.28;4817446;29;20064;-64
2023/04/24 09:13:05;;;;;;;8.55;2.75;;;;;;;30.90;25.86;98539.19;4816766;29;20527;-65
2023/04/24 09:15:35;;;;;;;5.50;2.60;;;;;;;30.52;28.22;98531.00;4816543;29;20132;-63
2023/04/24 09:18:05;;;;;;;3.97;2.35;;;;;;;30.17;29.05;98542.00;4816043;29;20052;-64
2023/04/24 09:20:37;;;;;;;6.50;2.85;;;;;;;29.94;29.24;98521.47;4816331;29;20058;-64
2023/04/24 09:23:06;;;;;;;5.13;2.80;;;;;;;29.84;29.80;98521.75;4816533;29;20101;-65
2023/04/24 09:25:36;;;;;;;9.27;2.70;;;;;;;29.85;30.64;98526.91;4816447;29;20050;-64
2023/04/24 09:28:06;;;;;;;10.05;2.60;;;;;;;29.48;31.63;98513.09;4816556;29;20289;-64
2023/04/24 09:30:35;;;;;;;8.02;2.53;;;;;;;29.85;31.10;98515.97;4816532;29;20484;-63
2023/04/24 09:33:15;;;;;;;5.72;2.53;;;;;;;29.82;28.16;98513.09;4816716;29;20061;-64
2023/04/24 09:35:51;;;;;;;4.93;2.50;;;;;;;29.62;30.58;98508.28;4831322;29;20072;-64
2023/04/24 09:38:38;;;;;;;4.57;2.33;;;;;;;29.67;30.43;98500.75;4816660;29;20095;-64
2023/04/24 09:41:13;;;;;;;7.40;2.53;;;;;;;29.51;31.14;98504.28;4817005;29;20431;-63
2023/04/24 09:43:43;;;;;;;7.10;3.33;;;;;;;29.34;30.82;98500.41;4813007;29;20059;-63
2023/04/24 09:46:13;;;;;;;4.30;2.50;;;;;;;29.06;30.02;98495.53;4817559;29;20531;-63
2023/04/24 09:48:42;;;;;;;12.20;3.08;;;;;;;28.74;30.02;98489.34;4817779;29;20054;-64
2023/04/24 09:51:12;;;;;;;5.45;2.53;;;;;;;28.74;30.69;98488.56;4817394;29;20499;-64
2023/04/24 09:53:53;;;;;;;10.02;2.58;;;;;;;28.70;30.02;98493.00;4818053;29;20494;-66
2023/04/24 09:56:26;;;;;;;11.88;2.75;;;;;;;28.63;30.43;98490.75;4828225;29;20562;-63
2023/04/24 09:59:05;;;;;;;14.88;2.70;;;;;;;28.55;30.85;98486.84;4817374;29;20054;-64
2023/04/24 10:01:35;;;;;;;6.68;2.97;;;;;;;28.52;31.76;98468.41;4817194;29;20141;-64
2023/04/24 10:04:05;;;;;;;8.35;2.65;;;;;;;28.52;32.22;98470.34;4800421;29;20059;-64
2023/04/24 10:06:35;;;;;;;9.65;2.92;;;;;;;28.61;31.58;98462.19;4817195;29;20145;-63
2023/04/24 10:09:05;;;;;;;7.70;2.90;;;;;;;28.69;32.28;98467.66;4816782;29;20491;-62
2023/04/24 10:11:35;;;;;;;9.38;3.15;;;;;;;28.88;29.46;98461.97;4815467;29;20502;-64
2023/04/24 10:14:05;;;;;;;8.68;2.45;;;;;;;28.78;32.97;98456.81;4814819;29;20134;-63
2023/04/24 10:16:35;;;;;;;10.00;2.85;;;;;;;28.73;33.08;98459.69;4815766;29;20051;-59
2023/04/24 10:19:06;;;;;;;8.65;2.80;;;;;;;28.72;33.25;98460.81;4818446;29;20055;-59
2023/04/24 10:21:42;;;;;;;10.57;3.27;;;;;;;28.76;31.58;98453.63;4816578;29;20338;-59
2023/04/24 10:24:16;;;;;;;9.15;2.83;;;;;;;28.76;31.12;98443.50;4820402;29;20378;-59
2023/04/24 10:26:48;;;;;;;7.40;2.70;;;;;;;28.69;31.53;98442.31;4815049;29;20042;-60
2023/04/24 10:29:19;;;;;;;8.68;2.90;;;;;;;28.69;30.94;98450.50;4815084;29;20099;-59
2023/04/24 10:31:49;;;;;;;14.73;3.65;;;;;;;28.73;31.49;98433.22;4821818;29;20059;-60
2023/04/24 10:34:22;;;;;;;7.93;2.63;;;;;;;28.91;25.97;98445.78;4808044;29;20046;-60
2023/04/24 10:36:54;;;;;;;6.28;3.55;;;;;;;28.98;32.01;98439.88;4809136;29;20129;-59
2023/04/24 10:39:26;;;;;;;9.73;3.10;;;;;;;29.29;25.85;98437.84;4807155;29;20113;-62
2023/04/24 10:41:57;;;;;;;11.73;3.33;;;;;;;29.64;24.30;98444.06;4804612;29;20070;-58
2023/04/24 10:44:36;;;;;;;11.48;3.28;;;;;;;30.01;22.97;98434.34;4810523;29;20054;-57
2023/04/24 10:47:12;;;;;;;7.88;3.10;;;;;;;30.30;19.83;98434.44;4809939;29;20057;-58
2023/04/24 10:49:42;;;;;;;7.13;2.72;;;;;;;30.69;19.33;98437.97;4808797;29;20058;-57
2023/04/24 10:52:12;;;;;;;8.55;3.10;;;;;;;30.99;18.43;98430.53;4808637;29;20046;-59
2023/04/24 10:54:45;;;;;;;6.53;2.83;;;;;;;30.94;24.54;98428.78;4810971;29;20047;-61
2023/04/24 10:57:19;;;;;;;6.45;3.30;;;;;;;30.82;24.09;98428.72;4828551;29;20046;-59
2023/04/24 10:59:53;;;;;;;7.82;2.88;;;;;;;30.71;27.44;98419.31;4822113;29;20066;-60
2023/04/24 11:02:37;;;;;;;6.35;3.10;;;;;;;30.68;27.29;98426.22;4820506;29;20054;-59
2023/04/24 11:05:08;;;;;;;11.50;3.15;;;;;;;30.37;29.62;98427.63;4818940;29;20050;-59
2023/04/24 11:08:13;;;;;;;7.55;2.97;;;;;;;30.23;29.06;98427.84;4813365;29;20062;-58
2023/04/24 11:10:48;;;;;;;9.88;3.38;;;;;;;30.06;29.21;98422.44;4814343;29;20140;-57
2023/04/24 11:13:22;;;;;;;8.50;3.00;;;;;;;29.91;30.12;98420.28;4823559;29;20053;-58
2023/04/24 11:16:14;;;;;;;7.68;2.75;;;;;;;29.74;29.37;98427.31;4812541;29;20539;-59
2023/04/24 11:18:45;;;;;;;8.18;3.80;;;;;;;29.63;28.57;98417.88;4823766;29;20129;-58
2023/04/24 11:21:18;;;;;;;8.35;3.15;;;;;;;29.48;29.96;98417.56;4794814;29;20058;-56
2023/04/24 11:23:50;;;;;;;6.88;2.92;;;;;;;29.36;28.49;98419.03;4131081;29;10000652;-58
2023/04/24 11:26:32;;;;;;;15.45;2.90;;;;;;;29.28;30.87;98416.28;4808388;29;20539;-58
2023/04/24 11:29:08;;;;;;;4.97;2.67;;;;;;;29.19;31.31;98416.28;4820943;29;20054;-59
2023/04/24 11:32:35;;;;;;;13.20;3.17;;;;;;;29.14;30.69;98419.16;4820850;29;20467;-59
2023/04/24 11:35:16;;;;;;;7.95;3.53;;;;;;;29.26;26.63;98413.88;4826345;29;20313;-59
2023/04/24 11:37:50;;;;;;;6.45;2.78;;;;;;;29.37;29.75;98407.00;4820667;29;20054;-59
2023/04/24 11:40:42;;;;;;;10.55;3.17;;;;;;;29.31;31.07;98405.56;4825269;29;20579;-58
2023/04/24 11:43:15;;;;;;;13.73;3.40;;;;;;;29.33;26.52;98408.78;4824718;29;20056;-60
2023/04/24 11:45:49;;;;;;;15.68;3.15;;;;;;;29.35;30.90;98413.88;4792726;29;20050;-58
2023/04/24 11:48:20;;;;;;;5.82;3.25;;;;;;;29.28;31.04;98411.63;4825420;29;20041;-60
2023/04/24 12:02:27;;;;;;;8.43;3.17;;;;;;;29.01;32.40;98407.28;4818319;29;20146;-61
2023/04/24 12:04:57;;;;;;;9.45;3.28;;;;;;;29.05;30.16;98407.44;4814419;29;20137;-61
2023/04/24 12:07:27;;;;;;;13.85;3.53;;;;;;;29.05;29.86;98406.66;4809691;29;20093;-59
2023/04/24 12:09:59;;;;;;;4.43;2.92;;;;;;;28.98;31.09;98407.13;4811273;29;20103;-59
2023/04/24 12:12:30;;;;;;;9.57;2.95;;;;;;;28.91;31.81;98406.78;4830274;29;20511;-59
2023/04/24 12:15:01;;;;;;;7.25;3.20;;;;;;;28.84;32.26;98403.75;4797311;29;20058;-58
2023/04/24 12:17:33;;;;;;;6.55;3.65;;;;;;;28.76;33.23;98405.34;4810917;29;20078;-60
2023/04/24 12:20:06;;;;;;;7.78;3.30;;;;;;;28.72;33.75;98412.56;4810928;29;20047;-59
2023/04/24 12:22:56;;;;;;;8.85;3.30;;;;;;;28.68;34.28;98408.81;4821291;29;20058;-59